createdAt,value
2019-04-05T00:01:56.365Z,5.80
2019-04-05T00:04:23.931Z,5.70
2019-04-05T00:06:51.396Z,5.70
2019-04-05T00:09:18.964Z,5.70
2019-04-05T00:11:46.470Z,5.70
2019-04-05T00:14:13.960Z,5.70
2019-04-05T00:16:41.480Z,5.70
2019-04-05T00:19:08.976Z,5.70
2019-04-05T00:21:36.481Z,5.70
2019-04-05T00:24:04.020Z,5.60
2019-04-05T00:26:31.496Z,5.70
2019-04-05T00:28:58.968Z,5.60
2019-04-05T00:31:26.467Z,5.70
2019-04-05T00:33:53.967Z,5.70
2019-04-05T00:36:21.484Z,5.70
2019-04-05T00:38:48.952Z,5.70
2019-04-05T00:41:16.489Z,5.70
2019-04-05T00:43:43.933Z,5.70
2019-04-05T00:46:11.437Z,5.70
2019-04-05T00:48:38.998Z,5.70
2019-04-05T00:51:06.469Z,5.70
2019-04-05T00:53:33.973Z,5.70
2019-04-05T00:56:01.585Z,5.70
2019-04-05T00:58:29.070Z,5.70
2019-04-05T01:00:56.547Z,5.70
2019-04-05T01:03:24.041Z,5.70
2019-04-05T01:05:51.545Z,5.70
2019-04-05T01:08:19.036Z,5.70
2019-04-05T01:10:46.536Z,5.70
2019-04-05T01:13:14.159Z,5.70
2019-04-05T01:15:41.617Z,5.60
2019-04-05T01:18:09.373Z,5.60
2019-04-05T01:20:39.210Z,5.60
2019-04-05T01:23:06.817Z,5.60
2019-04-05T01:25:35.467Z,5.60
2019-04-05T01:28:02.975Z,5.60
2019-04-05T01:30:30.456Z,5.60
2019-04-05T01:32:57.939Z,5.60
2019-04-05T01:35:25.410Z,5.60
2019-04-05T01:37:52.891Z,5.60
2019-04-05T01:40:20.407Z,5.60
2019-04-05T01:42:48.180Z,5.60
2019-04-05T01:45:15.683Z,5.60
2019-04-05T01:47:43.160Z,5.50
2019-04-05T01:50:10.864Z,5.60
2019-04-05T01:52:41.721Z,5.60
2019-04-05T01:55:09.287Z,5.20
2019-04-05T01:57:36.783Z,5.60
2019-04-05T02:00:05.986Z,5.50
2019-04-05T02:02:33.480Z,5.50
2019-04-05T02:05:00.981Z,5.60
2019-04-05T02:07:28.496Z,5.50
2019-04-05T02:09:57.129Z,5.50
2019-04-05T02:12:24.605Z,5.50
2019-04-05T02:14:52.100Z,5.50
2019-04-05T02:17:19.702Z,5.50
2019-04-05T02:19:47.181Z,5.50
2019-04-05T02:22:14.693Z,5.50
2019-04-05T02:24:42.156Z,5.50
2019-04-05T02:27:09.669Z,5.50
2019-04-05T02:29:37.136Z,5.50
2019-04-05T02:32:04.602Z,5.50
2019-04-05T02:34:32.082Z,5.50
2019-04-05T02:36:59.848Z,5.50
2019-04-05T02:39:27.328Z,5.40
2019-04-05T02:41:56.128Z,5.40
2019-04-05T02:44:24.446Z,5.40
2019-04-05T02:46:53.808Z,5.40
2019-04-05T02:49:24.594Z,5.40
2019-04-05T02:51:54.613Z,5.40
2019-04-05T02:54:22.417Z,5.40
2019-04-05T02:56:50.412Z,5.40
2019-04-05T02:59:18.258Z,5.30
2019-04-05T03:01:46.263Z,5.40
2019-04-05T03:04:14.369Z,5.40
2019-04-05T03:06:42.045Z,5.40
2019-04-05T03:09:10.666Z,5.40
2019-04-05T03:11:38.842Z,5.40
2019-04-05T03:14:09.119Z,5.40
2019-04-05T03:16:41.796Z,5.40
2019-04-05T03:19:17.744Z,5.40
2019-04-05T03:21:50.194Z,5.50
2019-04-05T03:24:21.166Z,5.40
2019-04-05T03:26:55.314Z,5.50
2019-04-05T03:29:23.531Z,5.40
2019-04-05T03:31:51.817Z,5.50
2019-04-05T03:34:19.479Z,5.40
2019-04-05T03:36:47.276Z,5.40
2019-04-05T03:39:15.075Z,5.40
2019-04-05T03:41:42.877Z,5.40
2019-04-05T03:44:10.406Z,5.40
2019-04-05T03:46:54.336Z,5.40
2019-04-05T03:49:08.179Z,5.40
2019-04-05T03:51:36.018Z,5.50
2019-04-05T03:54:04.244Z,5.50
2019-04-05T03:56:32.259Z,5.50
2019-04-05T03:58:59.978Z,5.50
2019-04-05T04:01:27.762Z,5.50
2019-04-05T04:03:55.406Z,5.50
2019-04-05T04:06:22.894Z,5.50
2019-04-05T04:08:50.504Z,5.50
2019-04-05T04:11:17.963Z,5.50
2019-04-05T04:13:45.469Z,5.50
2019-04-05T04:16:13.095Z,5.50
2019-04-05T04:18:40.682Z,5.50
2019-04-05T04:21:33.253Z,5.50
2019-04-05T04:24:00.886Z,5.50
2019-04-05T04:26:28.582Z,5.50
2019-04-05T04:28:57.004Z,5.50
2019-04-05T04:31:24.521Z,5.50
2019-04-05T04:33:52.618Z,5.50
2019-04-05T04:36:20.872Z,5.50
2019-04-05T04:38:49.422Z,5.50
2019-04-05T04:41:16.890Z,5.50
2019-04-05T04:43:44.597Z,5.50
2019-04-05T04:46:12.499Z,5.40
2019-04-05T04:48:41.298Z,5.40
2019-04-05T04:51:09.864Z,5.40
2019-04-05T04:53:37.547Z,5.40
2019-04-05T04:56:05.394Z,5.40
2019-04-05T04:58:32.899Z,5.40
2019-04-05T05:01:00.410Z,5.40
2019-04-05T05:03:27.929Z,5.40
2019-04-05T05:05:55.590Z,5.30
2019-04-05T05:08:23.439Z,5.40
2019-04-05T05:10:50.906Z,5.30
2019-04-05T05:13:18.414Z,5.30
2019-04-05T05:15:46.042Z,5.30
2019-04-05T05:18:13.987Z,5.30
2019-04-05T05:20:42.826Z,5.30
2019-04-05T05:23:10.494Z,5.30
2019-04-05T05:25:38.020Z,5.20
2019-04-05T05:28:05.660Z,5.20
2019-04-05T05:30:33.353Z,5.20
2019-04-05T05:33:01.229Z,5.20
2019-04-05T05:35:28.990Z,5.30
2019-04-05T05:37:56.562Z,5.30
2019-04-05T05:40:34.243Z,5.40
2019-04-05T05:42:53.503Z,5.40
2019-04-05T05:45:21.034Z,5.40
2019-04-05T05:47:52.214Z,5.60
2019-04-05T05:50:17.889Z,5.40
2019-04-05T05:52:45.529Z,5.50
2019-04-05T05:55:13.045Z,5.50
2019-04-05T05:57:40.548Z,5.50
2019-04-05T06:00:10.429Z,5.50
2019-04-05T06:02:38.886Z,5.50
2019-04-05T06:05:07.174Z,5.50
2019-04-05T06:07:34.692Z,5.50
2019-04-05T06:10:02.194Z,5.50
2019-04-05T06:12:29.664Z,5.50
2019-04-05T06:14:57.177Z,5.50
2019-04-05T06:17:24.638Z,5.80
2019-04-05T06:19:52.130Z,5.60
2019-04-05T06:22:19.569Z,5.60
2019-04-05T06:24:47.059Z,5.70
2019-04-05T06:27:14.551Z,5.70
2019-04-05T06:29:42.006Z,5.70
2019-04-05T06:32:09.535Z,5.70
2019-04-05T06:34:37.022Z,5.80
2019-04-05T06:37:04.498Z,5.80
2019-04-05T06:39:31.993Z,5.80
2019-04-05T06:41:59.587Z,5.80
2019-04-05T06:44:28.057Z,5.80
2019-04-05T06:46:55.714Z,5.80
2019-04-05T06:49:23.218Z,5.70
2019-04-05T06:51:50.683Z,5.80
2019-04-05T06:54:18.284Z,5.80
2019-04-05T06:56:45.754Z,5.80
2019-04-05T06:59:13.234Z,5.80
2019-04-05T07:01:40.701Z,5.80
2019-04-05T07:04:08.193Z,5.80
2019-04-05T07:06:35.687Z,5.90
2019-04-05T07:09:05.161Z,5.90
2019-04-05T07:11:32.705Z,5.90
2019-04-05T07:14:00.240Z,6.00
2019-04-05T07:16:31.132Z,6.00
2019-04-05T07:18:58.638Z,6.10
2019-04-05T07:21:26.102Z,6.10
2019-04-05T07:23:53.571Z,6.20
2019-04-05T07:26:21.261Z,6.20
2019-04-05T07:28:48.821Z,6.20
2019-04-05T07:31:16.297Z,6.20
2019-04-05T07:33:43.803Z,6.20
2019-04-05T07:36:11.262Z,6.10
2019-04-05T07:38:38.778Z,6.10
2019-04-05T07:41:06.268Z,6.10
2019-04-05T07:43:33.769Z,6.20
2019-04-05T07:46:01.226Z,6.20
2019-04-05T07:48:28.703Z,6.20
2019-04-05T07:50:56.255Z,6.20
2019-04-05T07:53:23.737Z,6.30
2019-04-05T07:55:51.256Z,6.40
2019-04-05T07:58:18.710Z,6.50
2019-04-05T08:00:52.251Z,6.60
2019-04-05T08:03:20.720Z,6.70
2019-04-05T08:05:48.805Z,6.70
2019-04-05T08:08:29.922Z,6.80
2019-04-05T08:10:57.508Z,6.80
2019-04-05T08:13:26.782Z,6.90
2019-04-05T08:15:54.286Z,6.90
2019-04-05T08:18:21.728Z,7.00
2019-04-05T08:20:49.195Z,7.00
2019-04-05T08:23:16.695Z,7.00
2019-04-05T08:25:44.165Z,7.10
2019-04-05T08:28:11.672Z,7.10
2019-04-05T08:30:39.116Z,7.20
2019-04-05T08:33:06.633Z,7.20
2019-04-05T08:35:34.134Z,7.30
2019-04-05T08:38:01.633Z,7.30
2019-04-05T08:40:29.113Z,7.30
2019-04-05T08:42:56.575Z,7.20
2019-04-05T08:45:24.072Z,7.20
2019-04-05T08:47:51.671Z,7.20
2019-04-05T08:50:19.179Z,7.20
2019-04-05T08:52:46.680Z,7.30
2019-04-05T08:55:14.135Z,7.30
2019-04-05T08:57:41.647Z,7.40
2019-04-05T09:00:09.326Z,7.40
2019-04-05T09:02:36.814Z,7.40
2019-04-05T09:05:04.620Z,7.40
2019-04-05T09:07:32.104Z,7.40
2019-04-05T09:09:59.552Z,7.40
2019-04-05T09:12:27.048Z,7.40
2019-04-05T09:14:54.538Z,7.50
2019-04-05T09:17:21.996Z,7.50
2019-04-05T09:19:49.520Z,7.50
2019-04-05T09:22:17.017Z,7.50
2019-04-05T09:24:44.486Z,7.60
2019-04-05T09:27:11.982Z,7.70
2019-04-05T09:29:39.483Z,7.80
2019-04-05T09:32:06.964Z,7.80
2019-04-05T09:34:34.504Z,7.80
2019-04-05T09:37:01.976Z,7.90
2019-04-05T09:39:29.672Z,7.80
2019-04-05T09:41:57.142Z,7.90
2019-04-05T09:44:24.585Z,7.90
2019-04-05T09:46:52.109Z,7.90
2019-04-05T09:49:19.631Z,7.90
2019-04-05T09:51:47.089Z,8.00
2019-04-05T09:54:14.535Z,8.00
2019-04-05T09:56:42.081Z,8.10
2019-04-05T09:59:09.543Z,8.10
2019-04-05T10:01:37.058Z,8.10
2019-04-05T10:04:04.550Z,8.10
2019-04-05T10:06:31.996Z,8.20
2019-04-05T10:08:59.474Z,8.30
2019-04-05T10:11:26.937Z,8.40
2019-04-05T10:13:54.439Z,8.40
2019-04-05T10:16:21.932Z,8.40
2019-04-05T10:18:51.528Z,8.30
2019-04-05T10:21:18.863Z,8.40
2019-04-05T10:23:46.354Z,8.50
2019-04-05T10:26:13.825Z,8.60
2019-04-05T10:28:41.282Z,8.80
2019-04-05T10:31:08.765Z,8.90
2019-04-05T10:33:36.250Z,8.90
2019-04-05T10:36:03.759Z,8.90
2019-04-05T10:38:31.246Z,8.80
2019-04-05T10:40:58.706Z,8.80
2019-04-05T10:43:26.203Z,8.50
2019-04-05T10:45:53.672Z,8.50
2019-04-05T10:48:21.112Z,8.40
2019-04-05T10:50:48.617Z,8.40
2019-04-05T10:53:16.112Z,8.50
2019-04-05T10:55:43.577Z,8.70
2019-04-05T10:58:11.079Z,8.70
2019-04-05T11:00:38.556Z,8.80
2019-04-05T11:03:06.041Z,8.90
2019-04-05T11:05:33.490Z,9.00
2019-04-05T11:08:00.991Z,9.10
2019-04-05T11:10:28.449Z,9.20
2019-04-05T11:12:56.020Z,9.30
2019-04-05T11:15:23.476Z,9.30
2019-04-05T11:17:50.969Z,9.20
2019-04-05T11:20:22.182Z,9.30
2019-04-05T11:22:50.014Z,9.30
2019-04-05T11:25:20.329Z,9.40
2019-04-05T11:27:46.655Z,9.50
2019-04-05T11:30:16.164Z,9.40
2019-04-05T11:32:43.786Z,9.50
2019-04-05T11:35:11.514Z,9.60
2019-04-05T11:37:39.803Z,9.60
2019-04-05T11:40:08.181Z,9.70
2019-04-05T11:42:36.979Z,9.70
2019-04-05T11:45:04.915Z,9.80
2019-04-05T11:47:32.890Z,9.90
2019-04-05T11:50:02.633Z,9.90
2019-04-05T11:52:30.240Z,9.80
2019-04-05T11:54:57.768Z,9.80
2019-04-05T11:57:25.263Z,9.80
2019-04-05T11:59:52.750Z,9.70
2019-04-05T12:02:42.780Z,9.60
2019-04-05T12:05:12.258Z,9.40
2019-04-05T12:07:39.714Z,9.40
2019-04-05T12:10:07.634Z,9.40
2019-04-05T12:12:35.107Z,9.50
2019-04-05T12:15:06.213Z,9.60
2019-04-05T12:17:35.000Z,9.60
2019-04-05T12:20:02.713Z,9.70
2019-04-05T12:22:32.647Z,9.70
2019-04-05T12:25:02.813Z,9.60
2019-04-05T12:27:30.584Z,9.50
2019-04-05T12:29:58.116Z,9.50
2019-04-05T12:32:33.678Z,9.40
2019-04-05T12:34:58.098Z,9.50
2019-04-05T12:37:25.658Z,9.50
2019-04-05T12:39:53.153Z,9.60
2019-04-05T12:42:20.694Z,9.80
2019-04-05T12:44:48.230Z,9.90
2019-04-05T12:47:16.232Z,10.20
2019-04-05T12:49:45.481Z,10.50
2019-04-05T12:52:22.602Z,10.70
2019-04-05T12:54:42.599Z,11.00
2019-04-05T12:57:10.099Z,11.10
2019-04-05T12:59:37.685Z,11.10
2019-04-05T13:02:05.284Z,11.40
2019-04-05T13:04:32.780Z,11.50
2019-04-05T13:07:00.269Z,11.60
2019-04-05T13:09:27.789Z,11.30
2019-04-05T13:11:57.268Z,11.50
2019-04-05T13:14:26.521Z,11.50
2019-04-05T13:16:53.970Z,11.70
2019-04-05T13:19:21.526Z,11.60
2019-04-05T13:21:49.063Z,11.40
2019-04-05T13:24:16.574Z,11.40
2019-04-05T13:26:44.148Z,11.40
2019-04-05T13:29:11.642Z,11.30
2019-04-05T13:31:39.156Z,11.30
2019-04-05T13:34:06.746Z,11.00
2019-04-05T13:36:34.230Z,10.80
2019-04-05T13:39:01.737Z,11.00
2019-04-05T13:41:31.312Z,10.90
2019-04-05T13:44:01.177Z,10.80
2019-04-05T13:46:27.896Z,10.70
2019-04-05T13:48:55.391Z,10.80
2019-04-05T13:51:28.171Z,10.90
2019-04-05T13:53:52.293Z,11.00
2019-04-05T13:56:19.811Z,11.40
2019-04-05T13:58:47.433Z,11.50
2019-04-05T14:01:14.965Z,11.60
2019-04-05T14:03:42.507Z,11.40
2019-04-05T14:06:10.784Z,11.30
2019-04-05T14:08:41.158Z,11.20
2019-04-05T14:11:08.358Z,11.10
2019-04-05T14:13:37.767Z,11.00
2019-04-05T14:16:06.427Z,11.10
2019-04-05T14:18:33.913Z,11.50
2019-04-05T14:21:01.456Z,12.00
2019-04-05T14:23:28.983Z,12.60
2019-04-05T14:25:59.599Z,13.10
2019-04-05T14:28:25.792Z,13.70
2019-04-05T14:30:53.263Z,14.00
2019-04-05T14:33:24.386Z,14.00
2019-04-05T14:35:50.086Z,13.90
2019-04-05T14:38:19.854Z,14.00
2019-04-05T14:40:47.338Z,14.10
2019-04-05T14:43:15.607Z,14.40
2019-04-05T14:45:43.253Z,14.50
2019-04-05T17:12:28.757Z,12.60
2019-04-05T17:14:56.270Z,11.90
2019-04-05T17:17:23.796Z,11.80
2019-04-05T17:19:51.279Z,11.70
2019-04-05T17:22:18.750Z,11.60
2019-04-05T17:24:46.271Z,11.50
2019-04-05T17:27:13.789Z,11.30
2019-04-05T17:29:41.285Z,11.30
2019-04-05T17:32:08.793Z,11.10
2019-04-05T17:34:36.331Z,11.10
2019-04-05T17:37:03.801Z,10.90
2019-04-05T17:39:31.341Z,10.70
2019-04-05T17:41:58.828Z,10.50
2019-04-05T17:44:26.342Z,10.30
2019-04-05T17:46:53.840Z,10.20
2019-04-05T17:49:21.363Z,10.00
2019-04-05T17:51:48.842Z,9.80
2019-04-05T17:54:16.384Z,9.60
2019-04-05T17:56:44.282Z,9.50
2019-04-05T17:59:12.228Z,9.40
2019-04-05T18:01:39.762Z,9.30
2019-04-05T18:04:07.247Z,9.20
2019-04-05T18:06:35.069Z,9.10
2019-04-05T18:09:04.959Z,8.90
2019-04-05T18:11:32.529Z,8.80
2019-04-05T18:14:00.045Z,8.70
2019-04-05T18:16:27.518Z,8.60
2019-04-05T18:18:56.277Z,8.60
2019-04-05T18:21:23.746Z,8.70
2019-04-05T18:23:51.220Z,8.70
2019-04-05T18:26:18.750Z,8.70
2019-04-05T18:28:46.308Z,8.70
2019-04-05T18:31:14.010Z,8.80
2019-04-05T18:33:41.566Z,8.90
2019-04-05T18:36:09.044Z,9.00
2019-04-05T18:38:36.627Z,9.00
2019-04-05T18:41:04.372Z,9.10
2019-04-05T18:43:32.019Z,9.10
2019-04-05T18:46:02.496Z,9.10
2019-04-05T18:48:30.006Z,9.10
2019-04-05T18:50:57.502Z,9.10
2019-04-05T18:53:36.762Z,9.10
2019-04-05T18:55:54.400Z,9.10
2019-04-05T18:58:22.067Z,9.20
2019-04-05T19:00:49.570Z,9.20
2019-04-05T19:03:17.056Z,9.20
2019-04-05T19:05:44.545Z,9.20
2019-04-05T19:08:12.059Z,9.20
2019-04-05T19:10:39.592Z,9.20
2019-04-05T19:13:07.071Z,9.30
2019-04-05T19:15:34.629Z,9.30
2019-04-05T19:18:02.222Z,9.30
2019-04-05T19:20:29.758Z,9.20
2019-04-05T19:22:57.291Z,9.20
2019-04-05T19:25:24.780Z,9.20
2019-04-05T19:27:52.322Z,9.20
2019-04-05T19:50:14.437Z,9.00
2019-04-05T19:52:42.130Z,8.90
2019-04-05T19:55:09.622Z,8.90
2019-04-05T19:57:37.118Z,8.80
2019-04-05T20:00:05.714Z,8.80
2019-04-05T20:02:33.203Z,8.80
2019-04-05T20:05:00.659Z,8.80
2019-04-05T20:07:28.167Z,8.80
2019-04-05T20:09:55.689Z,8.80
2019-04-05T20:12:23.208Z,9.00
2019-04-05T20:14:50.715Z,8.80
2019-04-05T20:17:18.209Z,8.80
2019-04-05T20:19:45.715Z,8.80
2019-04-05T20:22:13.203Z,8.80
2019-04-05T20:24:40.701Z,8.70
2019-04-05T20:27:08.199Z,8.80
2019-04-05T20:29:35.725Z,8.80
2019-04-05T20:32:03.220Z,8.80
2019-04-05T20:34:30.713Z,8.80
2019-04-05T20:36:58.292Z,8.80
2019-04-05T20:39:25.810Z,8.80
2019-04-05T20:41:53.305Z,8.80
2019-04-05T20:44:20.800Z,8.80
2019-04-05T20:46:49.142Z,8.80
2019-04-05T20:49:16.734Z,8.80
2019-04-05T20:51:44.215Z,8.80
2019-04-05T20:54:11.708Z,8.80
2019-04-05T20:56:39.224Z,8.80
2019-04-05T20:59:06.762Z,8.90
2019-04-05T21:01:34.255Z,8.90
2019-04-05T21:04:01.740Z,8.80
2019-04-05T21:06:29.269Z,8.90
2019-04-05T21:08:56.775Z,8.80
2019-04-05T21:11:24.289Z,9.20
2019-04-05T21:13:51.792Z,8.90
2019-04-05T21:16:19.269Z,8.90
2019-04-05T21:18:46.786Z,8.90
2019-04-05T21:21:14.314Z,8.90
2019-04-05T21:23:41.870Z,8.90
2019-04-05T21:26:09.300Z,8.90
2019-04-05T21:28:38.556Z,8.90
2019-04-05T21:31:06.039Z,8.90
2019-04-05T21:33:33.540Z,8.90
2019-04-05T21:36:01.047Z,8.80
2019-04-05T21:38:28.657Z,8.80
2019-04-05T21:40:56.195Z,8.80
2019-04-05T21:43:23.657Z,8.80
2019-04-05T21:45:51.136Z,8.50
2019-04-05T21:48:18.671Z,8.80
2019-04-05T21:50:46.138Z,8.80
2019-04-05T21:53:13.588Z,8.80
2019-04-05T21:55:41.125Z,8.80
2019-04-05T21:58:08.628Z,8.80
2019-04-05T22:00:43.993Z,8.80
2019-04-05T22:03:11.540Z,8.90
2019-04-05T22:05:38.969Z,8.90
2019-04-05T22:08:06.415Z,8.90
2019-04-05T22:10:34.068Z,8.80
2019-04-05T22:13:01.562Z,8.80
2019-04-05T22:15:29.058Z,8.80
2019-04-05T22:17:56.547Z,8.70
2019-04-05T22:20:24.102Z,8.70
2019-04-05T22:22:51.583Z,8.80
2019-04-05T22:25:19.067Z,8.80
2019-04-05T22:27:46.756Z,8.80
2019-04-05T22:30:14.763Z,8.80
2019-04-05T22:32:42.160Z,8.80
2019-04-05T22:35:09.692Z,8.80
2019-04-05T22:37:37.207Z,8.80
2019-04-05T22:40:05.445Z,8.90
2019-04-05T22:42:32.920Z,8.90
2019-04-05T22:45:00.427Z,8.90
2019-04-05T22:47:27.890Z,8.90
2019-04-05T22:49:55.386Z,8.90
2019-04-05T22:52:22.890Z,9.00
2019-04-05T22:54:50.349Z,9.00
2019-04-05T22:57:17.847Z,8.90
2019-04-05T22:59:45.331Z,8.90
2019-04-05T23:02:12.805Z,8.90
2019-04-05T23:04:40.256Z,8.80
2019-04-05T23:07:07.776Z,8.80
2019-04-05T23:09:35.258Z,8.80
2019-04-05T23:12:02.736Z,8.90
2019-04-05T23:14:30.270Z,8.80
2019-04-05T23:16:57.767Z,8.80
2019-04-05T23:19:25.229Z,8.70
2019-04-05T23:21:52.722Z,8.70
2019-04-05T23:24:20.240Z,8.60
2019-04-05T23:26:47.694Z,8.60
2019-04-05T23:29:15.182Z,8.50
2019-04-05T23:31:42.658Z,8.50
2019-04-05T23:34:10.129Z,8.50
2019-04-05T23:36:37.665Z,8.50
2019-04-05T23:39:05.770Z,8.50
2019-04-05T23:41:33.242Z,8.60
2019-04-05T23:44:00.697Z,8.60
2019-04-05T23:46:28.191Z,8.60
2019-04-05T23:48:55.679Z,8.70
2019-04-05T23:51:23.127Z,8.60
2019-04-05T23:53:50.609Z,8.60
2019-04-05T23:56:18.069Z,8.50
2019-04-05T23:58:45.549Z,8.40
